• Join FlightAware (Why Join?)
  • Login
  • US Flag 
11:20PM EDT


 

Airport Tracker/Info


-or-


 

Live Flight TrackerFlight Track Log ✈ N8407R ✈ 02-May-2013 ✈ KGRR - KMSN

Flight Track Log - Related Links

Times and Time Zones

All times are in EDT time to prevent confusion due to time zone crossing. See the N8407R flight status page for this flight to view local times or setup timezone preferences in your user account.

Time Position Orientation Groundspeed Altitude Reporting Facility
EDT Latitude Longitude Course Direction KTS MPH feet Rate Location/Type
04:13PM 42.9308 -85.5075 277° West 130 150 2,700  Level Chicago Center
04:14PM 42.9403 -85.5547 285° West 130 150 3,200 360 Climbing Chicago Center
04:15PM 42.9508 -85.6081 285° West 137 158 3,500 360 Climbing Chicago Center
04:16PM 42.9542 -85.6744 274° West 143 165 4,000 240 Climbing Chicago Center
04:17PM 42.9048 -85.8524 277° West  Level FlightAware Approximate
04:17PM 42.9564 -85.7339 273° West 151 174 4,100  Level Chicago Center
04:18PM 42.9099 -85.9087 277° West  Level FlightAware Approximate
04:18PM 42.9619 -85.7956 277° West 160 184 4,100  Level Chicago Center
04:19PM 42.9642 -85.8572 273° West 163 188 4,000 -60 Descending Chicago Center
04:20PM 42.9642 -85.9183 270° West 161 185 4,000  Level Chicago Center
04:21PM 42.9625 -85.9800 268° West 161 185 4,100  Climbing Chicago Center
04:22PM 42.9647 -86.0422 273° West 161 185 4,100  Level Chicago Center
04:23PM 42.9692 -86.1158 275° West 162 186 4,100  Level Chicago Center
04:24PM 42.9739 -86.1761 276° West 160 184 4,100  Level Chicago Center
04:25PM 42.9781 -86.2356 275° West 159 183 4,100  Level Chicago Center
04:26PM 42.9825 -86.2947 276° West 158 182 4,100  Level Chicago Center
04:27PM 42.9872 -86.3542 276° West 157 181 4,100  Level Chicago Center
04:28PM 42.9914 -86.4133 276° West 157 181 4,100  Level Chicago Center
04:29PM 42.9944 -86.4742 274° West 159 183 4,100  Level Chicago Center
04:30PM 42.9978 -86.5461 274° West 159 183 4,100  Level Chicago Center
04:31PM 43.0019 -86.6058 275° West 159 183 4,100  Level Chicago Center
04:32PM 43.0061 -86.6653 275° West 159 183 4,100  Level Chicago Center
04:33PM 43.0100 -86.7267 275° West 160 184 4,100  Level Chicago Center
04:34PM 43.0133 -86.7883 274° West 162 186 4,100 180 Level Chicago Center
04:35PM 43.0178 -86.8589 275° West 157 181 4,500 360 Climbing Chicago Center
04:36PM 43.0208 -86.9153 274° West 152 175 4,900 360 Climbing Chicago Center
04:38PM 43.0244 -86.9731 275° West 152 175 5,300 360 Climbing Chicago Center
04:39PM 43.0267 -87.0308 273° West 153 176 5,700 300 Climbing Chicago Center
04:40PM 43.0297 -87.0892 274° West 155 178 6,000  Climbing Chicago Center
04:42PM 43.0322 -87.1967 272° West  Level FlightAware Approximate
04:44PM 43.0419 -87.3447 274° West 161 185 6,000  Level Chicago Center
04:45PM 43.0458 -87.4064 274° West 161 185 6,000  Level Chicago Center
04:46PM 43.0463 -87.4271 274° West  Level FlightAware Approximate
04:46PM 43.0489 -87.4686 274° West 163 188 6,000  Level Chicago Center
04:47PM 43.0525 -87.5400 274° West 162 186 6,100  Climbing Chicago Center
04:48PM 43.0561 -87.6031 275° West 165 190 6,000  Descending Chicago Center
04:49PM 43.0518 -87.5859 274° West  Level FlightAware Approximate
04:49PM 43.0597 -87.6658 275° West 165 190 6,100  Level Chicago Center
04:50PM 43.0725 -87.7275 286° West 167 192 6,100 -60 Level Chicago Center
04:51PM 43.0872 -87.7894 288° West 170 196 6,000 -60 Descending Chicago Center
04:52PM 43.1017 -87.8519 288° West 172 198 6,000 -60 Level Chicago Center
04:53PM 43.0659 -87.8161 274° West  Level FlightAware Approximate
04:53PM 43.1000 -87.9167 268° West 164 189 5,900  Level KMKE
04:54PM 43.1000 -87.9833 270° West 164 189 5,900  Level KMKE
04:55PM 43.1000 -88.0500 270° West 165 190 5,900  Level KMKE
04:56PM 43.1000 -88.1167 270° West 164 189 5,900  Level KMKE
04:57PM 43.0936 -88.1747 261° West 166 191 6,000 60 Climbing Chicago Center
04:58PM 43.1008 -88.2486 278° West 168 193 6,100  Climbing Chicago Center
04:59PM 43.1086 -88.3067 280° West 162 186 6,100 -60 Level Chicago Center
05:00PM 43.1081 -88.3586 269° West 148 170 6,000 -60 Descending Chicago Center
05:01PM 43.1133 -88.4108 278° West 141 162 6,000  Level Chicago Center
05:02PM 43.1225 -88.4631 284° West 140 161 6,100  Climbing Chicago Center
05:03PM 43.1275 -88.5144 278° West 138 159 6,100 -60 Level Chicago Center
05:04PM 43.1294 -88.5758 273° West 138 159 6,000 -180 Descending Chicago Center
05:05PM 43.1275 -88.6286 267° West 138 159 5,800 -420 Descending Chicago Center
05:06PM 43.1239 -88.6850 265° West 143 165 5,200 -540 Descending Chicago Center
05:08PM 43.1203 -88.7450 265° West 151 174 4,700 -480 Descending Chicago Center
05:09PM 43.1147 -88.8053 263° West 156 180 4,200 -360 Descending Chicago Center
05:10PM 43.1094 -88.8650 263° West 157 181 4,000 -480 Descending Chicago Center
05:11PM 43.0997 -88.9344 259° West 159 183 3,300 -540 Descending Chicago Center
05:12PM 43.0906 -88.9936 258° West 159 183 3,000 -180 Descending Chicago Center
05:13PM 43.0836 -89.0486 260° West 153 176 3,000 -60 Level Chicago Center
05:14PM 43.0864 -89.0944 275° West 134 154 2,900 -300 Descending Chicago Center
05:15PM 43.0872 -89.1428 271° West 127 146 2,400 -240 Descending Chicago Center
05:16PM 43.0889 -89.1992 272° West 127 146 2,500 -60 Climbing Chicago Center
05:17PM 43.0944 -89.2383 281° West 115 132 2,300 -240 Descending Chicago Center
05:18PM 43.1053 -89.2714 294° West 103 119 2,100 -360 Descending Chicago Center
05:19PM 43.1161 -89.3031 295° West 96 110 1,600 -420 Descending Chicago Center
05:20PM 43.1308 -89.3231 315° West 89 102 1,300 -300 Descending Chicago Center
05:22PM 43.1333 -89.3333 270° West  Level FlightAware Approximate